sensor_id;sensor_type;location;lat;lon;timestamp;P1;durP1;ratioP1;P2;durP2;ratioP2
7154;SDS011;3619;53.784;10.440;2023-11-19T00:01:47;10.07;;;9.67;;
7154;SDS011;3619;53.784;10.440;2023-11-19T00:04:15;10.50;;;10.03;;
7154;SDS011;3619;53.784;10.440;2023-11-19T00:06:42;9.83;;;9.43;;
7154;SDS011;3619;53.784;10.440;2023-11-19T00:09:08;9.80;;;9.40;;
7154;SDS011;3619;53.784;10.440;2023-11-19T00:11:35;9.93;;;9.53;;
7154;SDS011;3619;53.784;10.440;2023-11-19T00:14:02;10.80;;;10.40;;
7154;SDS011;3619;53.784;10.440;2023-11-19T00:16:33;10.83;;;10.43;;
7154;SDS011;3619;53.784;10.440;2023-11-19T00:19:01;11.70;;;11.20;;
7154;SDS011;3619;53.784;10.440;2023-11-19T00:21:29;11.23;;;10.83;;
7154;SDS011;3619;53.784;10.440;2023-11-19T00:23:55;9.80;;;9.40;;
7154;SDS011;3619;53.784;10.440;2023-11-19T00:26:23;10.17;;;9.77;;
7154;SDS011;3619;53.784;10.440;2023-11-19T00:28:50;9.23;;;8.93;;
7154;SDS011;3619;53.784;10.440;2023-11-19T00:31:17;9.83;;;9.43;;
7154;SDS011;3619;53.784;10.440;2023-11-19T00:33:44;10.27;;;9.87;;
7154;SDS011;3619;53.784;10.440;2023-11-19T00:36:12;9.83;;;9.43;;
7154;SDS011;3619;53.784;10.440;2023-11-19T00:38:39;10.87;;;10.47;;
7154;SDS011;3619;53.784;10.440;2023-11-19T00:41:06;10.43;;;10.03;;
7154;SDS011;3619;53.784;10.440;2023-11-19T00:43:33;9.07;;;8.77;;
7154;SDS011;3619;53.784;10.440;2023-11-19T00:45:59;11.67;;;11.27;;
7154;SDS011;3619;53.784;10.440;2023-11-19T00:48:27;10.93;;;10.53;;
7154;SDS011;3619;53.784;10.440;2023-11-19T00:50:54;11.13;;;10.73;;
7154;SDS011;3619;53.784;10.440;2023-11-19T00:53:22;11.23;;;10.83;;
7154;SDS011;3619;53.784;10.440;2023-11-19T00:55:49;11.07;;;10.67;;
7154;SDS011;3619;53.784;10.440;2023-11-19T00:58:16;9.60;;;9.23;;
7154;SDS011;3619;53.784;10.440;2023-11-19T01:00:43;10.37;;;9.97;;
7154;SDS011;3619;53.784;10.440;2023-11-19T01:03:10;11.20;;;10.80;;
7154;SDS011;3619;53.784;10.440;2023-11-19T01:05:37;11.10;;;10.70;;
7154;SDS011;3619;53.784;10.440;2023-11-19T01:08:04;10.70;;;10.30;;
7154;SDS011;3619;53.784;10.440;2023-11-19T01:10:33;10.47;;;10.07;;
7154;SDS011;3619;53.784;10.440;2023-11-19T01:13:00;10.83;;;10.43;;
7154;SDS011;3619;53.784;10.440;2023-11-19T01:15:29;11.80;;;11.40;;
7154;SDS011;3619;53.784;10.440;2023-11-19T01:17:56;10.63;;;10.23;;
7154;SDS011;3619;53.784;10.440;2023-11-19T01:20:23;10.30;;;9.90;;
7154;SDS011;3619;53.784;10.440;2023-11-19T01:22:49;9.63;;;9.23;;
7154;SDS011;3619;53.784;10.440;2023-11-19T01:25:17;11.27;;;10.87;;
7154;SDS011;3619;53.784;10.440;2023-11-19T01:27:45;9.30;;;9.00;;
7154;SDS011;3619;53.784;10.440;2023-11-19T01:30:12;8.37;;;8.07;;
7154;SDS011;3619;53.784;10.440;2023-11-19T01:32:39;10.23;;;9.83;;
7154;SDS011;3619;53.784;10.440;2023-11-19T01:35:06;9.70;;;9.30;;
7154;SDS011;3619;53.784;10.440;2023-11-19T01:37:34;10.50;;;10.10;;
7154;SDS011;3619;53.784;10.440;2023-11-19T01:40:01;10.73;;;10.33;;
7154;SDS011;3619;53.784;10.440;2023-11-19T01:42:29;9.30;;;9.00;;
7154;SDS011;3619;53.784;10.440;2023-11-19T01:45:04;9.93;;;9.53;;
7154;SDS011;3619;53.784;10.440;2023-11-19T01:47:33;9.17;;;8.87;;
7154;SDS011;3619;53.784;10.440;2023-11-19T01:50:01;8.93;;;8.63;;
7154;SDS011;3619;53.784;10.440;2023-11-19T01:52:31;10.07;;;9.67;;
7154;SDS011;3619;53.784;10.440;2023-11-19T01:55:00;10.07;;;9.67;;
7154;SDS011;3619;53.784;10.440;2023-11-19T01:57:28;9.27;;;8.97;;
7154;SDS011;3619;53.784;10.440;2023-11-19T01:59:55;9.93;;;9.53;;
7154;SDS011;3619;53.784;10.440;2023-11-19T02:02:23;9.93;;;9.53;;
7154;SDS011;3619;53.784;10.440;2023-11-19T02:04:51;13.73;;;12.63;;
7154;SDS011;3619;53.784;10.440;2023-11-19T02:07:19;10.70;;;10.30;;
7154;SDS011;3619;53.784;10.440;2023-11-19T02:09:46;9.63;;;9.23;;
7154;SDS011;3619;53.784;10.440;2023-11-19T02:12:13;9.10;;;8.80;;
7154;SDS011;3619;53.784;10.440;2023-11-19T02:14:40;9.23;;;8.93;;
7154;SDS011;3619;53.784;10.440;2023-11-19T02:17:07;12.07;;;11.60;;
7154;SDS011;3619;53.784;10.440;2023-11-19T02:19:52;10.87;;;10.47;;
7154;SDS011;3619;53.784;10.440;2023-11-19T02:22:19;10.97;;;10.57;;
7154;SDS011;3619;53.784;10.440;2023-11-19T02:24:46;9.37;;;9.07;;
7154;SDS011;3619;53.784;10.440;2023-11-19T02:27:15;11.90;;;11.50;;
7154;SDS011;3619;53.784;10.440;2023-11-19T02:29:55;10.90;;;10.50;;
7154;SDS011;3619;53.784;10.440;2023-11-19T02:32:22;10.00;;;9.60;;
7154;SDS011;3619;53.784;10.440;2023-11-19T02:34:50;11.43;;;11.03;;
7154;SDS011;3619;53.784;10.440;2023-11-19T02:37:18;11.37;;;10.97;;
7154;SDS011;3619;53.784;10.440;2023-11-19T02:39:45;10.67;;;10.27;;
7154;SDS011;3619;53.784;10.440;2023-11-19T02:42:12;11.03;;;10.63;;
7154;SDS011;3619;53.784;10.440;2023-11-19T02:44:39;9.83;;;9.43;;
7154;SDS011;3619;53.784;10.440;2023-11-19T02:47:11;11.33;;;10.93;;
7154;SDS011;3619;53.784;10.440;2023-11-19T02:49:38;9.97;;;9.57;;
7154;SDS011;3619;53.784;10.440;2023-11-19T02:52:05;11.27;;;10.87;;
7154;SDS011;3619;53.784;10.440;2023-11-19T02:54:35;9.33;;;9.03;;
7154;SDS011;3619;53.784;10.440;2023-11-19T02:57:02;9.30;;;8.93;;
7154;SDS011;3619;53.784;10.440;2023-11-19T02:59:31;11.27;;;10.87;;
7154;SDS011;3619;53.784;10.440;2023-11-19T03:02:04;11.53;;;11.13;;
7154;SDS011;3619;53.784;10.440;2023-11-19T03:04:33;10.17;;;9.77;;
7154;SDS011;3619;53.784;10.440;2023-11-19T03:07:00;10.97;;;10.57;;
7154;SDS011;3619;53.784;10.440;2023-11-19T03:09:27;10.70;;;10.30;;
7154;SDS011;3619;53.784;10.440;2023-11-19T03:11:54;11.30;;;10.90;;
7154;SDS011;3619;53.784;10.440;2023-11-19T03:14:21;9.93;;;9.53;;
7154;SDS011;3619;53.784;10.440;2023-11-19T03:16:49;9.27;;;8.97;;
7154;SDS011;3619;53.784;10.440;2023-11-19T03:19:16;10.37;;;9.97;;
7154;SDS011;3619;53.784;10.440;2023-11-19T03:21:44;9.67;;;9.27;;
7154;SDS011;3619;53.784;10.440;2023-11-19T03:24:12;9.03;;;8.73;;
7154;SDS011;3619;53.784;10.440;2023-11-19T03:26:40;11.50;;;11.10;;
7154;SDS011;3619;53.784;10.440;2023-11-19T03:29:07;10.23;;;9.83;;
7154;SDS011;3619;53.784;10.440;2023-11-19T03:31:34;10.60;;;10.20;;
7154;SDS011;3619;53.784;10.440;2023-11-19T03:34:01;9.37;;;9.07;;
7154;SDS011;3619;53.784;10.440;2023-11-19T03:36:31;9.73;;;9.33;;
7154;SDS011;3619;53.784;10.440;2023-11-19T03:39:00;7.37;;;7.07;;
7154;SDS011;3619;53.784;10.440;2023-11-19T03:41:28;9.77;;;9.37;;
7154;SDS011;3619;53.784;10.440;2023-11-19T03:43:55;8.80;;;8.50;;
7154;SDS011;3619;53.784;10.440;2023-11-19T03:46:22;7.70;;;7.40;;
7154;SDS011;3619;53.784;10.440;2023-11-19T03:48:49;7.47;;;7.17;;
7154;SDS011;3619;53.784;10.440;2023-11-19T03:51:16;8.40;;;8.10;;
7154;SDS011;3619;53.784;10.440;2023-11-19T03:53:43;8.07;;;7.77;;
7154;SDS011;3619;53.784;10.440;2023-11-19T03:56:11;8.97;;;8.67;;
7154;SDS011;3619;53.784;10.440;2023-11-19T03:58:38;8.73;;;8.43;;
7154;SDS011;3619;53.784;10.440;2023-11-19T04:01:05;9.97;;;9.57;;
7154;SDS011;3619;53.784;10.440;2023-11-19T04:03:37;8.10;;;7.80;;
7154;SDS011;3619;53.784;10.440;2023-11-19T04:06:03;8.53;;;8.23;;
7154;SDS011;3619;53.784;10.440;2023-11-19T04:08:30;7.30;;;7.00;;
7154;SDS011;3619;53.784;10.440;2023-11-19T04:10:57;8.20;;;7.90;;
7154;SDS011;3619;53.784;10.440;2023-11-19T04:13:25;7.93;;;7.63;;
7154;SDS011;3619;53.784;10.440;2023-11-19T04:15:53;7.73;;;7.43;;
7154;SDS011;3619;53.784;10.440;2023-11-19T04:18:19;7.27;;;6.97;;
7154;SDS011;3619;53.784;10.440;2023-11-19T04:20:46;7.50;;;7.20;;
7154;SDS011;3619;53.784;10.440;2023-11-19T04:23:13;6.93;;;6.70;;
7154;SDS011;3619;53.784;10.440;2023-11-19T04:25:40;6.17;;;5.97;;
7154;SDS011;3619;53.784;10.440;2023-11-19T04:28:07;7.47;;;7.17;;
7154;SDS011;3619;53.784;10.440;2023-11-19T04:30:35;7.87;;;7.57;;
7154;SDS011;3619;53.784;10.440;2023-11-19T04:33:02;7.03;;;6.77;;
7154;SDS011;3619;53.784;10.440;2023-11-19T04:35:30;6.77;;;6.57;;
7154;SDS011;3619;53.784;10.440;2023-11-19T04:37:57;7.53;;;7.13;;
7154;SDS011;3619;53.784;10.440;2023-11-19T04:40:24;7.17;;;6.87;;
7154;SDS011;3619;53.784;10.440;2023-11-19T04:42:51;6.13;;;5.93;;
7154;SDS011;3619;53.784;10.440;2023-11-19T04:45:18;6.40;;;6.20;;
7154;SDS011;3619;53.784;10.440;2023-11-19T04:47:47;6.00;;;5.80;;
7154;SDS011;3619;53.784;10.440;2023-11-19T04:50:13;5.57;;;5.37;;
7154;SDS011;3619;53.784;10.440;2023-11-19T04:52:40;5.33;;;5.13;;
7154;SDS011;3619;53.784;10.440;2023-11-19T04:55:10;6.53;;;6.33;;
7154;SDS011;3619;53.784;10.440;2023-11-19T04:57:37;6.57;;;6.27;;
7154;SDS011;3619;53.784;10.440;2023-11-19T05:00:04;5.23;;;5.03;;
7154;SDS011;3619;53.784;10.440;2023-11-19T05:02:32;5.80;;;5.60;;
7154;SDS011;3619;53.784;10.440;2023-11-19T05:05:00;5.07;;;4.87;;
7154;SDS011;3619;53.784;10.440;2023-11-19T05:07:26;6.10;;;5.90;;
7154;SDS011;3619;53.784;10.440;2023-11-19T05:09:53;6.93;;;6.70;;
7154;SDS011;3619;53.784;10.440;2023-11-19T05:12:20;5.53;;;5.33;;
7154;SDS011;3619;53.784;10.440;2023-11-19T05:14:47;5.97;;;5.77;;
7154;SDS011;3619;53.784;10.440;2023-11-19T05:17:15;5.63;;;5.43;;
7154;SDS011;3619;53.784;10.440;2023-11-19T05:19:43;5.90;;;5.70;;
7154;SDS011;3619;53.784;10.440;2023-11-19T05:22:11;5.20;;;5.00;;
7154;SDS011;3619;53.784;10.440;2023-11-19T05:24:38;4.97;;;4.77;;
7154;SDS011;3619;53.784;10.440;2023-11-19T05:27:05;5.30;;;5.10;;
7154;SDS011;3619;53.784;10.440;2023-11-19T05:29:33;5.30;;;5.10;;
7154;SDS011;3619;53.784;10.440;2023-11-19T05:32:00;4.57;;;4.37;;
7154;SDS011;3619;53.784;10.440;2023-11-19T05:34:27;4.00;;;3.90;;
7154;SDS011;3619;53.784;10.440;2023-11-19T05:36:53;5.10;;;4.90;;
7154;SDS011;3619;53.784;10.440;2023-11-19T05:39:22;5.30;;;5.10;;
7154;SDS011;3619;53.784;10.440;2023-11-19T05:41:49;4.73;;;4.53;;
7154;SDS011;3619;53.784;10.440;2023-11-19T05:44:16;4.40;;;4.30;;
7154;SDS011;3619;53.784;10.440;2023-11-19T05:46:43;4.50;;;4.33;;
7154;SDS011;3619;53.784;10.440;2023-11-19T05:49:10;5.20;;;4.97;;
7154;SDS011;3619;53.784;10.440;2023-11-19T05:51:38;3.63;;;3.53;;
7154;SDS011;3619;53.784;10.440;2023-11-19T05:54:06;3.40;;;3.30;;
7154;SDS011;3619;53.784;10.440;2023-11-19T05:56:34;3.60;;;3.50;;
7154;SDS011;3619;53.784;10.440;2023-11-19T05:59:01;4.33;;;4.03;;
7154;SDS011;3619;53.784;10.440;2023-11-19T06:01:32;3.80;;;3.50;;
7154;SDS011;3619;53.784;10.440;2023-11-19T06:03:58;3.10;;;3.00;;
7154;SDS011;3619;53.784;10.440;2023-11-19T06:06:26;3.70;;;3.60;;
7154;SDS011;3619;53.784;10.440;2023-11-19T06:08:52;2.80;;;2.70;;
7154;SDS011;3619;53.784;10.440;2023-11-19T06:11:20;3.13;;;3.03;;
7154;SDS011;3619;53.784;10.440;2023-11-19T06:13:48;3.23;;;3.13;;
7154;SDS011;3619;53.784;10.440;2023-11-19T06:16:16;3.33;;;3.13;;
7154;SDS011;3619;53.784;10.440;2023-11-19T06:18:42;2.77;;;2.67;;
7154;SDS011;3619;53.784;10.440;2023-11-19T06:21:09;3.30;;;3.20;;
7154;SDS011;3619;53.784;10.440;2023-11-19T06:23:36;3.00;;;2.90;;
7154;SDS011;3619;53.784;10.440;2023-11-19T06:26:03;3.73;;;3.63;;
7154;SDS011;3619;53.784;10.440;2023-11-19T06:28:31;2.93;;;2.83;;
7154;SDS011;3619;53.784;10.440;2023-11-19T06:31:01;2.27;;;2.17;;
7154;SDS011;3619;53.784;10.440;2023-11-19T06:33:29;2.33;;;2.23;;
7154;SDS011;3619;53.784;10.440;2023-11-19T06:35:56;3.53;;;3.33;;
7154;SDS011;3619;53.784;10.440;2023-11-19T06:38:22;2.67;;;2.57;;
7154;SDS011;3619;53.784;10.440;2023-11-19T06:40:49;2.47;;;2.37;;
7154;SDS011;3619;53.784;10.440;2023-11-19T06:43:16;3.80;;;3.60;;
7154;SDS011;3619;53.784;10.440;2023-11-19T06:45:43;2.70;;;2.60;;
7154;SDS011;3619;53.784;10.440;2023-11-19T06:48:11;3.10;;;2.97;;
7154;SDS011;3619;53.784;10.440;2023-11-19T06:50:38;2.20;;;2.10;;
7154;SDS011;3619;53.784;10.440;2023-11-19T06:53:04;3.07;;;2.97;;
7154;SDS011;3619;53.784;10.440;2023-11-19T06:55:35;3.13;;;2.93;;
7154;SDS011;3619;53.784;10.440;2023-11-19T06:58:02;2.00;;;1.90;;
7154;SDS011;3619;53.784;10.440;2023-11-19T07:00:28;5.60;;;3.77;;
7154;SDS011;3619;53.784;10.440;2023-11-19T07:02:57;2.73;;;2.63;;
7154;SDS011;3619;53.784;10.440;2023-11-19T07:05:26;2.30;;;2.17;;
7154;SDS011;3619;53.784;10.440;2023-11-19T07:07:53;2.37;;;2.27;;
7154;SDS011;3619;53.784;10.440;2023-11-19T07:10:20;3.80;;;3.63;;
7154;SDS011;3619;53.784;10.440;2023-11-19T07:12:47;2.70;;;2.60;;
7154;SDS011;3619;53.784;10.440;2023-11-19T07:15:15;3.73;;;3.53;;
7154;SDS011;3619;53.784;10.440;2023-11-19T07:17:42;2.97;;;2.87;;
7154;SDS011;3619;53.784;10.440;2023-11-19T07:20:10;2.90;;;2.80;;
7154;SDS011;3619;53.784;10.440;2023-11-19T07:22:41;2.83;;;2.73;;
7154;SDS011;3619;53.784;10.440;2023-11-19T07:25:10;3.30;;;3.20;;
7154;SDS011;3619;53.784;10.440;2023-11-19T07:27:38;2.23;;;2.13;;
7154;SDS011;3619;53.784;10.440;2023-11-19T07:30:05;3.00;;;2.90;;
7154;SDS011;3619;53.784;10.440;2023-11-19T07:32:33;2.50;;;2.40;;
7154;SDS011;3619;53.784;10.440;2023-11-19T07:35:00;2.63;;;2.53;;
7154;SDS011;3619;53.784;10.440;2023-11-19T07:37:26;3.10;;;2.93;;
7154;SDS011;3619;53.784;10.440;2023-11-19T07:39:54;2.40;;;2.30;;
7154;SDS011;3619;53.784;10.440;2023-11-19T07:42:21;2.17;;;2.03;;
7154;SDS011;3619;53.784;10.440;2023-11-19T07:44:48;3.10;;;3.00;;
7154;SDS011;3619;53.784;10.440;2023-11-19T07:47:16;2.60;;;2.50;;
7154;SDS011;3619;53.784;10.440;2023-11-19T07:49:45;2.90;;;2.80;;
7154;SDS011;3619;53.784;10.440;2023-11-19T07:52:13;2.90;;;2.80;;
7154;SDS011;3619;53.784;10.440;2023-11-19T07:54:39;2.80;;;2.70;;
7154;SDS011;3619;53.784;10.440;2023-11-19T07:57:08;3.23;;;3.13;;
7154;SDS011;3619;53.784;10.440;2023-11-19T07:59:35;2.60;;;2.50;;
7154;SDS011;3619;53.784;10.440;2023-11-19T08:02:02;2.40;;;2.30;;
7154;SDS011;3619;53.784;10.440;2023-11-19T08:04:30;2.67;;;2.57;;
7154;SDS011;3619;53.784;10.440;2023-11-19T08:06:57;2.20;;;2.10;;
7154;SDS011;3619;53.784;10.440;2023-11-19T08:09:26;2.73;;;2.63;;
7154;SDS011;3619;53.784;10.440;2023-11-19T08:11:53;2.63;;;2.53;;
7154;SDS011;3619;53.784;10.440;2023-11-19T08:14:22;3.03;;;2.93;;
7154;SDS011;3619;53.784;10.440;2023-11-19T08:16:49;3.10;;;3.00;;
7154;SDS011;3619;53.784;10.440;2023-11-19T08:19:16;2.83;;;2.73;;
7154;SDS011;3619;53.784;10.440;2023-11-19T08:21:44;3.27;;;3.17;;
7154;SDS011;3619;53.784;10.440;2023-11-19T08:24:11;3.27;;;3.17;;
7154;SDS011;3619;53.784;10.440;2023-11-19T08:26:37;3.67;;;3.57;;
7154;SDS011;3619;53.784;10.440;2023-11-19T08:29:04;4.23;;;4.13;;
7154;SDS011;3619;53.784;10.440;2023-11-19T08:31:33;4.87;;;4.67;;
7154;SDS011;3619;53.784;10.440;2023-11-19T08:34:00;5.60;;;5.40;;
7154;SDS011;3619;53.784;10.440;2023-11-19T08:36:27;4.47;;;4.33;;
7154;SDS011;3619;53.784;10.440;2023-11-19T08:38:56;5.60;;;5.40;;
7154;SDS011;3619;53.784;10.440;2023-11-19T08:41:23;6.07;;;5.87;;
7154;SDS011;3619;53.784;10.440;2023-11-19T08:43:50;6.17;;;5.97;;
7154;SDS011;3619;53.784;10.440;2023-11-19T08:46:17;7.90;;;7.60;;
7154;SDS011;3619;53.784;10.440;2023-11-19T08:48:46;9.47;;;9.13;;
7154;SDS011;3619;53.784;10.440;2023-11-19T08:51:12;8.17;;;7.87;;
7154;SDS011;3619;53.784;10.440;2023-11-19T08:53:39;9.83;;;9.43;;
7154;SDS011;3619;53.784;10.440;2023-11-19T08:56:06;10.67;;;10.13;;
7154;SDS011;3619;53.784;10.440;2023-11-19T08:58:35;13.93;;;13.23;;
7154;SDS011;3619;53.784;10.440;2023-11-19T09:01:02;12.27;;;11.77;;
7154;SDS011;3619;53.784;10.440;2023-11-19T09:03:30;14.93;;;14.33;;
7154;SDS011;3619;53.784;10.440;2023-11-19T09:06:01;16.87;;;16.17;;
7154;SDS011;3619;53.784;10.440;2023-11-19T09:08:29;16.57;;;15.97;;
7154;SDS011;3619;53.784;10.440;2023-11-19T09:10:56;21.20;;;20.40;;
7154;SDS011;3619;53.784;10.440;2023-11-19T09:13:22;22.80;;;21.90;;
7154;SDS011;3619;53.784;10.440;2023-11-19T09:15:49;21.37;;;20.57;;
7154;SDS011;3619;53.784;10.440;2023-11-19T09:18:16;25.70;;;24.70;;
7154;SDS011;3619;53.784;10.440;2023-11-19T09:20:43;28.20;;;27.10;;
7154;SDS011;3619;53.784;10.440;2023-11-19T09:23:11;29.17;;;28.07;;
7154;SDS011;3619;53.784;10.440;2023-11-19T09:25:41;31.13;;;29.93;;
7154;SDS011;3619;53.784;10.440;2023-11-19T09:28:08;32.17;;;30.43;;
7154;SDS011;3619;53.784;10.440;2023-11-19T09:30:35;32.77;;;31.53;;
7154;SDS011;3619;53.784;10.440;2023-11-19T09:33:02;36.20;;;34.60;;
7154;SDS011;3619;53.784;10.440;2023-11-19T09:35:29;34.47;;;33.10;;
7154;SDS011;3619;53.784;10.440;2023-11-19T09:37:56;35.03;;;33.73;;
7154;SDS011;3619;53.784;10.440;2023-11-19T09:40:25;35.17;;;33.80;;
7154;SDS011;3619;53.784;10.440;2023-11-19T09:42:53;33.73;;;32.43;;
7154;SDS011;3619;53.784;10.440;2023-11-19T09:45:20;33.30;;;32.00;;
7154;SDS011;3619;53.784;10.440;2023-11-19T09:47:47;34.73;;;33.40;;
7154;SDS011;3619;53.784;10.440;2023-11-19T09:50:19;30.90;;;29.70;;
7154;SDS011;3619;53.784;10.440;2023-11-19T09:52:46;27.00;;;26.00;;
7154;SDS011;3619;53.784;10.440;2023-11-19T09:55:13;32.97;;;31.70;;
7154;SDS011;3619;53.784;10.440;2023-11-19T09:57:42;32.50;;;31.30;;
7154;SDS011;3619;53.784;10.440;2023-11-19T10:00:10;30.03;;;28.93;;
7154;SDS011;3619;53.784;10.440;2023-11-19T10:02:40;29.23;;;28.13;;
7154;SDS011;3619;53.784;10.440;2023-11-19T10:05:11;28.60;;;27.50;;
7154;SDS011;3619;53.784;10.440;2023-11-19T10:07:39;26.50;;;25.50;;
7154;SDS011;3619;53.784;10.440;2023-11-19T10:10:07;25.80;;;24.80;;
7154;SDS011;3619;53.784;10.440;2023-11-19T10:12:35;42.33;;;29.67;;
7154;SDS011;3619;53.784;10.440;2023-11-19T10:15:04;28.50;;;27.40;;
7154;SDS011;3619;53.784;10.440;2023-11-19T10:17:38;28.23;;;27.13;;
7154;SDS011;3619;53.784;10.440;2023-11-19T10:20:06;26.73;;;25.73;;
7154;SDS011;3619;53.784;10.440;2023-11-19T10:22:36;24.40;;;23.50;;
7154;SDS011;3619;53.784;10.440;2023-11-19T10:25:04;22.77;;;21.87;;
7154;SDS011;3619;53.784;10.440;2023-11-19T10:27:47;25.57;;;24.57;;
7154;SDS011;3619;53.784;10.440;2023-11-19T10:30:18;28.53;;;27.43;;
7154;SDS011;3619;53.784;10.440;2023-11-19T10:32:57;29.90;;;28.80;;
7154;SDS011;3619;53.784;10.440;2023-11-19T10:35:30;30.40;;;29.17;;
7154;SDS011;3619;53.784;10.440;2023-11-19T10:37:58;28.80;;;27.70;;
7154;SDS011;3619;53.784;10.440;2023-11-19T10:40:37;28.80;;;27.50;;
7154;SDS011;3619;53.784;10.440;2023-11-19T10:43:05;31.53;;;29.60;;
7154;SDS011;3619;53.784;10.440;2023-11-19T10:45:34;24.33;;;23.43;;
7154;SDS011;3619;53.784;10.440;2023-11-19T10:48:01;27.43;;;26.23;;
7154;SDS011;3619;53.784;10.440;2023-11-19T10:50:31;25.83;;;24.83;;
7154;SDS011;3619;53.784;10.440;2023-11-19T10:52:58;26.00;;;25.00;;
7154;SDS011;3619;53.784;10.440;2023-11-19T10:55:26;33.47;;;30.63;;
7154;SDS011;3619;53.784;10.440;2023-11-19T10:57:58;32.60;;;31.40;;
7154;SDS011;3619;53.784;10.440;2023-11-19T11:00:27;39.57;;;32.47;;
7154;SDS011;3619;53.784;10.440;2023-11-19T11:02:59;36.00;;;34.60;;
7154;SDS011;3619;53.784;10.440;2023-11-19T11:05:28;35.27;;;31.53;;
7154;SDS011;3619;53.784;10.440;2023-11-19T11:07:58;37.63;;;36.20;;
7154;SDS011;3619;53.784;10.440;2023-11-19T11:10:27;36.87;;;35.47;;
7154;SDS011;3619;53.784;10.440;2023-11-19T11:13:00;35.47;;;34.10;;
7154;SDS011;3619;53.784;10.440;2023-11-19T11:15:30;35.73;;;34.10;;
7154;SDS011;3619;53.784;10.440;2023-11-19T11:18:00;38.70;;;35.90;;
7154;SDS011;3619;53.784;10.440;2023-11-19T11:20:28;36.57;;;35.07;;
7154;SDS011;3619;53.784;10.440;2023-11-19T11:23:02;38.70;;;36.97;;
7154;SDS011;3619;53.784;10.440;2023-11-19T11:25:44;37.67;;;36.17;;
7154;SDS011;3619;53.784;10.440;2023-11-19T11:28:25;38.70;;;37.20;;
7154;SDS011;3619;53.784;10.440;2023-11-19T11:37:06;32.37;;;31.17;;
7154;SDS011;3619;53.784;10.440;2023-11-19T11:39:40;33.73;;;32.10;;
7154;SDS011;3619;53.784;10.440;2023-11-19T11:45:03;27.80;;;26.73;;
7154;SDS011;3619;53.784;10.440;2023-11-19T11:50:48;25.97;;;24.97;;
7154;SDS011;3619;53.784;10.440;2023-11-19T11:53:20;25.50;;;24.50;;
7154;SDS011;3619;53.784;10.440;2023-11-19T11:55:56;23.47;;;22.57;;
7154;SDS011;3619;53.784;10.440;2023-11-19T11:58:35;24.60;;;23.70;;
7154;SDS011;3619;53.784;10.440;2023-11-19T12:01:03;25.97;;;24.90;;
7154;SDS011;3619;53.784;10.440;2023-11-19T12:03:34;22.37;;;21.57;;
7154;SDS011;3619;53.784;10.440;2023-11-19T12:06:05;26.40;;;25.40;;
7154;SDS011;3619;53.784;10.440;2023-11-19T12:08:33;22.97;;;22.07;;
7154;SDS011;3619;53.784;10.440;2023-11-19T12:11:01;28.90;;;27.23;;
7154;SDS011;3619;53.784;10.440;2023-11-19T12:13:47;22.90;;;22.00;;
7154;SDS011;3619;53.784;10.440;2023-11-19T12:16:23;23.80;;;22.90;;
7154;SDS011;3619;53.784;10.440;2023-11-19T12:18:52;25.60;;;24.60;;
7154;SDS011;3619;53.784;10.440;2023-11-19T12:21:30;28.53;;;26.47;;
7154;SDS011;3619;53.784;10.440;2023-11-19T12:23:58;26.70;;;25.70;;
7154;SDS011;3619;53.784;10.440;2023-11-19T12:26:36;26.40;;;25.40;;
7154;SDS011;3619;53.784;10.440;2023-11-19T12:29:04;28.17;;;27.07;;
7154;SDS011;3619;53.784;10.440;2023-11-19T12:31:31;30.10;;;29.00;;
7154;SDS011;3619;53.784;10.440;2023-11-19T12:34:10;28.90;;;27.80;;
7154;SDS011;3619;53.784;10.440;2023-11-19T12:36:39;29.70;;;28.60;;
7154;SDS011;3619;53.784;10.440;2023-11-19T12:39:07;32.37;;;31.17;;
7154;SDS011;3619;53.784;10.440;2023-11-19T12:41:50;33.30;;;32.00;;
7154;SDS011;3619;53.784;10.440;2023-11-19T12:44:20;34.07;;;32.60;;
7154;SDS011;3619;53.784;10.440;2023-11-19T12:46:58;31.77;;;30.57;;
7154;SDS011;3619;53.784;10.440;2023-11-19T12:49:26;33.83;;;32.53;;
7154;SDS011;3619;53.784;10.440;2023-11-19T12:51:55;28.80;;;27.70;;
7154;SDS011;3619;53.784;10.440;2023-11-19T12:54:31;28.50;;;27.40;;
7154;SDS011;3619;53.784;10.440;2023-11-19T12:56:59;32.00;;;30.80;;
7154;SDS011;3619;53.784;10.440;2023-11-19T12:59:28;34.07;;;32.77;;
7154;SDS011;3619;53.784;10.440;2023-11-19T13:01:56;34.03;;;32.73;;
7154;SDS011;3619;53.784;10.440;2023-11-19T13:04:27;37.50;;;36.10;;
7154;SDS011;3619;53.784;10.440;2023-11-19T13:06:57;30.97;;;29.77;;
7154;SDS011;3619;53.784;10.440;2023-11-19T13:09:40;39.23;;;37.40;;
7154;SDS011;3619;53.784;10.440;2023-11-19T13:12:14;34.63;;;33.33;;
7154;SDS011;3619;53.784;10.440;2023-11-19T13:14:51;35.57;;;34.17;;
7154;SDS011;3619;53.784;10.440;2023-11-19T13:17:24;33.60;;;32.30;;
7154;SDS011;3619;53.784;10.440;2023-11-19T13:19:53;36.17;;;34.77;;
7154;SDS011;3619;53.784;10.440;2023-11-19T13:22:24;36.47;;;35.07;;
7154;SDS011;3619;53.784;10.440;2023-11-19T13:24:52;40.27;;;38.30;;
7154;SDS011;3619;53.784;10.440;2023-11-19T13:27:29;41.10;;;39.50;;
7154;SDS011;3619;53.784;10.440;2023-11-19T13:29:58;38.37;;;36.87;;
7154;SDS011;3619;53.784;10.440;2023-11-19T13:32:25;40.43;;;38.83;;
7154;SDS011;3619;53.784;10.440;2023-11-19T13:34:59;39.50;;;38.00;;
7154;SDS011;3619;53.784;10.440;2023-11-19T13:37:29;39.90;;;38.40;;
7154;SDS011;3619;53.784;10.440;2023-11-19T13:39:57;38.97;;;37.47;;
7154;SDS011;3619;53.784;10.440;2023-11-19T13:42:25;37.27;;;35.87;;
7154;SDS011;3619;53.784;10.440;2023-11-19T13:44:54;41.37;;;39.77;;
7154;SDS011;3619;53.784;10.440;2023-11-19T13:47:29;39.60;;;38.10;;
7154;SDS011;3619;53.784;10.440;2023-11-19T13:49:57;36.30;;;34.90;;
7154;SDS011;3619;53.784;10.440;2023-11-19T13:52:26;39.50;;;38.00;;
7154;SDS011;3619;53.784;10.440;2023-11-19T13:54:55;37.10;;;35.70;;
7154;SDS011;3619;53.784;10.440;2023-11-19T13:57:22;35.60;;;34.23;;
7154;SDS011;3619;53.784;10.440;2023-11-19T13:59:49;37.87;;;36.43;;
7154;SDS011;3619;53.784;10.440;2023-11-19T14:02:18;41.63;;;40.03;;
7154;SDS011;3619;53.784;10.440;2023-11-19T14:04:46;40.27;;;38.77;;
7154;SDS011;3619;53.784;10.440;2023-11-19T14:07:13;47.03;;;44.10;;
7154;SDS011;3619;53.784;10.440;2023-11-19T14:09:43;52.43;;;50.43;;
7154;SDS011;3619;53.784;10.440;2023-11-19T14:12:15;50.13;;;48.13;;
7154;SDS011;3619;53.784;10.440;2023-11-19T14:14:43;51.33;;;49.33;;
7154;SDS011;3619;53.784;10.440;2023-11-19T14:17:10;51.17;;;49.07;;
7154;SDS011;3619;53.784;10.440;2023-11-19T14:19:37;42.00;;;40.40;;
7154;SDS011;3619;53.784;10.440;2023-11-19T14:22:04;45.23;;;43.53;;
7154;SDS011;3619;53.784;10.440;2023-11-19T14:24:31;47.17;;;45.37;;
7154;SDS011;3619;53.784;10.440;2023-11-19T14:26:59;45.20;;;43.50;;
7154;SDS011;3619;53.784;10.440;2023-11-19T14:29:27;44.80;;;43.10;;
7154;SDS011;3619;53.784;10.440;2023-11-19T14:31:55;41.13;;;39.53;;
7154;SDS011;3619;53.784;10.440;2023-11-19T14:34:23;48.07;;;46.20;;
7154;SDS011;3619;53.784;10.440;2023-11-19T14:36:51;44.53;;;42.83;;
7154;SDS011;3619;53.784;10.440;2023-11-19T14:39:19;47.07;;;45.27;;
7154;SDS011;3619;53.784;10.440;2023-11-19T14:41:45;47.37;;;45.57;;
7154;SDS011;3619;53.784;10.440;2023-11-19T14:44:12;44.73;;;43.03;;
7154;SDS011;3619;53.784;10.440;2023-11-19T14:46:41;49.40;;;47.50;;
7154;SDS011;3619;53.784;10.440;2023-11-19T14:49:08;52.27;;;50.27;;
7154;SDS011;3619;53.784;10.440;2023-11-19T14:51:35;51.30;;;49.30;;
7154;SDS011;3619;53.784;10.440;2023-11-19T14:54:02;50.97;;;49.00;;
7154;SDS011;3619;53.784;10.440;2023-11-19T14:56:31;51.10;;;49.10;;
7154;SDS011;3619;53.784;10.440;2023-11-19T14:59:00;53.77;;;51.50;;
7154;SDS011;3619;53.784;10.440;2023-11-19T15:01:30;53.63;;;51.53;;
7154;SDS011;3619;53.784;10.440;2023-11-19T15:04:01;54.30;;;52.20;;
7154;SDS011;3619;53.784;10.440;2023-11-19T15:06:30;50.13;;;48.23;;
7154;SDS011;3619;53.784;10.440;2023-11-19T15:08:59;46.53;;;44.73;;